sensor_id;sensor_type;location;lat;lon;timestamp;P1;durP1;ratioP1;P2;durP2;ratioP2
76344;SDS011;65160;50.504;3.666;2022-12-18T00:00:58;52.85;;;24.63;;
76344;SDS011;65160;50.504;3.666;2022-12-18T00:03:24;43.38;;;22.17;;
76344;SDS011;65160;50.504;3.666;2022-12-18T00:05:51;42.05;;;22.80;;
76344;SDS011;65160;50.504;3.666;2022-12-18T00:08:17;49.25;;;22.73;;
76344;SDS011;65160;50.504;3.666;2022-12-18T00:10:43;50.67;;;24.38;;
76344;SDS011;65160;50.504;3.666;2022-12-18T00:13:09;52.92;;;22.42;;
76344;SDS011;65160;50.504;3.666;2022-12-18T00:15:36;45.15;;;22.63;;
76344;SDS011;65160;50.504;3.666;2022-12-18T00:18:02;48.13;;;22.10;;
76344;SDS011;65160;50.504;3.666;2022-12-18T00:20:27;45.22;;;23.35;;
76344;SDS011;65160;50.504;3.666;2022-12-18T00:22:53;54.53;;;23.63;;
76344;SDS011;65160;50.504;3.666;2022-12-18T00:25:19;43.97;;;23.48;;
76344;SDS011;65160;50.504;3.666;2022-12-18T00:27:45;40.28;;;20.85;;
76344;SDS011;65160;50.504;3.666;2022-12-18T00:30:10;50.47;;;25.15;;
76344;SDS011;65160;50.504;3.666;2022-12-18T00:32:36;49.55;;;24.15;;
76344;SDS011;65160;50.504;3.666;2022-12-18T00:35:02;46.65;;;23.52;;
76344;SDS011;65160;50.504;3.666;2022-12-18T00:37:28;46.80;;;22.75;;
76344;SDS011;65160;50.504;3.666;2022-12-18T00:39:54;54.50;;;23.33;;
76344;SDS011;65160;50.504;3.666;2022-12-18T00:42:19;39.20;;;20.73;;
76344;SDS011;65160;50.504;3.666;2022-12-18T00:45:03;42.90;;;19.90;;
76344;SDS011;65160;50.504;3.666;2022-12-18T00:47:29;43.03;;;22.25;;
76344;SDS011;65160;50.504;3.666;2022-12-18T00:49:54;44.47;;;21.48;;
76344;SDS011;65160;50.504;3.666;2022-12-18T00:52:20;47.20;;;23.80;;
76344;SDS011;65160;50.504;3.666;2022-12-18T00:54:45;41.78;;;20.65;;
76344;SDS011;65160;50.504;3.666;2022-12-18T00:57:11;42.88;;;20.92;;
76344;SDS011;65160;50.504;3.666;2022-12-18T00:59:36;39.10;;;19.93;;
76344;SDS011;65160;50.504;3.666;2022-12-18T01:02:01;42.40;;;20.55;;
76344;SDS011;65160;50.504;3.666;2022-12-18T01:04:27;43.83;;;22.42;;
76344;SDS011;65160;50.504;3.666;2022-12-18T01:06:53;35.13;;;19.48;;
76344;SDS011;65160;50.504;3.666;2022-12-18T01:09:19;42.17;;;19.23;;
76344;SDS011;65160;50.504;3.666;2022-12-18T01:11:44;44.30;;;18.80;;
76344;SDS011;65160;50.504;3.666;2022-12-18T01:14:10;38.72;;;18.95;;
76344;SDS011;65160;50.504;3.666;2022-12-18T01:16:35;40.97;;;19.55;;
76344;SDS011;65160;50.504;3.666;2022-12-18T01:19:00;35.08;;;16.58;;
76344;SDS011;65160;50.504;3.666;2022-12-18T01:21:26;34.58;;;18.23;;
76344;SDS011;65160;50.504;3.666;2022-12-18T01:23:55;34.25;;;16.48;;
76344;SDS011;65160;50.504;3.666;2022-12-18T01:26:21;37.50;;;18.20;;
76344;SDS011;65160;50.504;3.666;2022-12-18T01:28:47;40.47;;;18.00;;
76344;SDS011;65160;50.504;3.666;2022-12-18T01:31:20;37.75;;;21.17;;
76344;SDS011;65160;50.504;3.666;2022-12-18T01:33:47;37.13;;;19.15;;
76344;SDS011;65160;50.504;3.666;2022-12-18T01:38:43;43.58;;;19.50;;
76344;SDS011;65160;50.504;3.666;2022-12-18T01:41:09;36.45;;;19.20;;
76344;SDS011;65160;50.504;3.666;2022-12-18T01:43:52;38.15;;;19.80;;
76344;SDS011;65160;50.504;3.666;2022-12-18T01:46:19;33.70;;;16.85;;
76344;SDS011;65160;50.504;3.666;2022-12-18T01:48:48;44.47;;;18.95;;
76344;SDS011;65160;50.504;3.666;2022-12-18T01:51:15;38.58;;;18.73;;
76344;SDS011;65160;50.504;3.666;2022-12-18T01:53:41;36.58;;;17.83;;
76344;SDS011;65160;50.504;3.666;2022-12-18T01:56:08;34.88;;;17.15;;
76344;SDS011;65160;50.504;3.666;2022-12-18T02:01:23;37.72;;;16.67;;
76344;SDS011;65160;50.504;3.666;2022-12-18T02:03:49;31.92;;;15.65;;
76344;SDS011;65160;50.504;3.666;2022-12-18T02:06:16;39.03;;;17.95;;
76344;SDS011;65160;50.504;3.666;2022-12-18T02:09:09;29.85;;;15.82;;
76344;SDS011;65160;50.504;3.666;2022-12-18T02:14:23;29.90;;;16.55;;
76344;SDS011;65160;50.504;3.666;2022-12-18T02:17:03;34.83;;;16.17;;
76344;SDS011;65160;50.504;3.666;2022-12-18T02:27:54;38.03;;;18.35;;
76344;SDS011;65160;50.504;3.666;2022-12-18T02:30:26;33.10;;;14.73;;
76344;SDS011;65160;50.504;3.666;2022-12-18T02:32:54;28.42;;;14.68;;
76344;SDS011;65160;50.504;3.666;2022-12-18T02:35:24;44.88;;;16.58;;
76344;SDS011;65160;50.504;3.666;2022-12-18T02:37:52;33.60;;;17.40;;
76344;SDS011;65160;50.504;3.666;2022-12-18T02:40:18;34.25;;;16.25;;
76344;SDS011;65160;50.504;3.666;2022-12-18T02:42:46;34.60;;;17.40;;
76344;SDS011;65160;50.504;3.666;2022-12-18T02:45:11;29.63;;;16.10;;
76344;SDS011;65160;50.504;3.666;2022-12-18T02:47:38;32.03;;;15.57;;
76344;SDS011;65160;50.504;3.666;2022-12-18T02:58:16;27.05;;;14.32;;
76344;SDS011;65160;50.504;3.666;2022-12-18T03:06:23;23.70;;;13.48;;
76344;SDS011;65160;50.504;3.666;2022-12-18T03:08:54;26.92;;;12.30;;
76344;SDS011;65160;50.504;3.666;2022-12-18T03:11:23;26.50;;;14.32;;
76344;SDS011;65160;50.504;3.666;2022-12-18T03:14:10;25.17;;;12.40;;
76344;SDS011;65160;50.504;3.666;2022-12-18T03:16:40;26.27;;;13.48;;
76344;SDS011;65160;50.504;3.666;2022-12-18T03:19:11;29.50;;;14.35;;
76344;SDS011;65160;50.504;3.666;2022-12-18T03:21:45;28.40;;;13.82;;
76344;SDS011;65160;50.504;3.666;2022-12-18T03:24:14;31.60;;;13.20;;
76344;SDS011;65160;50.504;3.666;2022-12-18T03:26:42;26.33;;;13.98;;
76344;SDS011;65160;50.504;3.666;2022-12-18T03:29:18;23.40;;;13.52;;
76344;SDS011;65160;50.504;3.666;2022-12-18T03:31:51;31.83;;;13.38;;
76344;SDS011;65160;50.504;3.666;2022-12-18T03:34:24;24.13;;;13.18;;
76344;SDS011;65160;50.504;3.666;2022-12-18T03:36:54;24.58;;;13.90;;
76344;SDS011;65160;50.504;3.666;2022-12-18T03:39:20;24.10;;;13.85;;
76344;SDS011;65160;50.504;3.666;2022-12-18T03:47:29;25.55;;;11.95;;
76344;SDS011;65160;50.504;3.666;2022-12-18T03:52:27;27.05;;;12.93;;
76344;SDS011;65160;50.504;3.666;2022-12-18T03:54:58;29.10;;;12.70;;
76344;SDS011;65160;50.504;3.666;2022-12-18T03:57:26;25.02;;;11.98;;
76344;SDS011;65160;50.504;3.666;2022-12-18T03:59:56;25.38;;;12.10;;
76344;SDS011;65160;50.504;3.666;2022-12-18T04:02:25;25.17;;;13.27;;
76344;SDS011;65160;50.504;3.666;2022-12-18T04:04:55;29.40;;;14.90;;
76344;SDS011;65160;50.504;3.666;2022-12-18T04:07:24;29.27;;;13.32;;
76344;SDS011;65160;50.504;3.666;2022-12-18T04:09:50;23.08;;;13.32;;
76344;SDS011;65160;50.504;3.666;2022-12-18T04:12:20;26.77;;;12.43;;
76344;SDS011;65160;50.504;3.666;2022-12-18T04:14:48;25.80;;;13.13;;
76344;SDS011;65160;50.504;3.666;2022-12-18T04:17:14;21.65;;;11.50;;
76344;SDS011;65160;50.504;3.666;2022-12-18T04:19:39;27.15;;;12.95;;
76344;SDS011;65160;50.504;3.666;2022-12-18T04:22:05;24.33;;;12.77;;
76344;SDS011;65160;50.504;3.666;2022-12-18T04:24:30;25.08;;;13.02;;
76344;SDS011;65160;50.504;3.666;2022-12-18T04:26:55;23.55;;;12.65;;
76344;SDS011;65160;50.504;3.666;2022-12-18T04:29:21;19.75;;;11.27;;
76344;SDS011;65160;50.504;3.666;2022-12-18T04:31:46;24.60;;;11.60;;
76344;SDS011;65160;50.504;3.666;2022-12-18T04:34:12;24.23;;;12.07;;
76344;SDS011;65160;50.504;3.666;2022-12-18T04:36:37;25.67;;;11.90;;
76344;SDS011;65160;50.504;3.666;2022-12-18T04:39:03;25.58;;;11.00;;
76344;SDS011;65160;50.504;3.666;2022-12-18T04:41:28;16.77;;;10.10;;
76344;SDS011;65160;50.504;3.666;2022-12-18T04:43:53;18.85;;;9.20;;
76344;SDS011;65160;50.504;3.666;2022-12-18T04:46:19;19.42;;;10.27;;
76344;SDS011;65160;50.504;3.666;2022-12-18T04:48:45;19.70;;;10.15;;
76344;SDS011;65160;50.504;3.666;2022-12-18T04:51:11;18.70;;;9.77;;
76344;SDS011;65160;50.504;3.666;2022-12-18T04:53:37;20.25;;;10.18;;
76344;SDS011;65160;50.504;3.666;2022-12-18T04:58:30;22.25;;;10.70;;
76344;SDS011;65160;50.504;3.666;2022-12-18T05:00:55;25.13;;;11.05;;
76344;SDS011;65160;50.504;3.666;2022-12-18T05:03:21;19.85;;;10.52;;
76344;SDS011;65160;50.504;3.666;2022-12-18T05:05:49;20.40;;;9.32;;
76344;SDS011;65160;50.504;3.666;2022-12-18T05:08:16;18.25;;;9.55;;
76344;SDS011;65160;50.504;3.666;2022-12-18T05:10:41;22.73;;;10.30;;
76344;SDS011;65160;50.504;3.666;2022-12-18T05:13:07;27.73;;;10.73;;
76344;SDS011;65160;50.504;3.666;2022-12-18T05:15:32;18.00;;;9.00;;
76344;SDS011;65160;50.504;3.666;2022-12-18T05:17:59;19.13;;;10.45;;
76344;SDS011;65160;50.504;3.666;2022-12-18T05:20:25;24.00;;;11.43;;
76344;SDS011;65160;50.504;3.666;2022-12-18T05:22:51;22.15;;;11.82;;
76344;SDS011;65160;50.504;3.666;2022-12-18T05:25:17;22.30;;;11.38;;
76344;SDS011;65160;50.504;3.666;2022-12-18T05:27:43;21.33;;;10.48;;
76344;SDS011;65160;50.504;3.666;2022-12-18T05:30:09;19.45;;;11.05;;
76344;SDS011;65160;50.504;3.666;2022-12-18T05:32:35;18.70;;;10.23;;
76344;SDS011;65160;50.504;3.666;2022-12-18T05:35:00;19.63;;;10.90;;
76344;SDS011;65160;50.504;3.666;2022-12-18T05:37:26;20.00;;;9.48;;
76344;SDS011;65160;50.504;3.666;2022-12-18T05:39:51;22.13;;;9.43;;
76344;SDS011;65160;50.504;3.666;2022-12-18T05:42:17;21.75;;;11.25;;
76344;SDS011;65160;50.504;3.666;2022-12-18T05:44:43;19.83;;;10.20;;
76344;SDS011;65160;50.504;3.666;2022-12-18T05:47:09;18.30;;;10.05;;
76344;SDS011;65160;50.504;3.666;2022-12-18T05:49:34;19.65;;;10.00;;
76344;SDS011;65160;50.504;3.666;2022-12-18T05:52:00;26.75;;;10.45;;
76344;SDS011;65160;50.504;3.666;2022-12-18T05:54:28;17.42;;;9.75;;
76344;SDS011;65160;50.504;3.666;2022-12-18T05:56:54;21.05;;;10.63;;
76344;SDS011;65160;50.504;3.666;2022-12-18T05:59:19;19.63;;;9.85;;
76344;SDS011;65160;50.504;3.666;2022-12-18T06:01:45;22.40;;;10.95;;
76344;SDS011;65160;50.504;3.666;2022-12-18T06:04:11;16.05;;;8.55;;
76344;SDS011;65160;50.504;3.666;2022-12-18T06:06:36;18.80;;;9.02;;
76344;SDS011;65160;50.504;3.666;2022-12-18T06:09:02;22.80;;;9.85;;
76344;SDS011;65160;50.504;3.666;2022-12-18T06:11:33;19.10;;;9.05;;
76344;SDS011;65160;50.504;3.666;2022-12-18T06:13:59;15.20;;;9.10;;
76344;SDS011;65160;50.504;3.666;2022-12-18T06:16:27;16.30;;;9.48;;
76344;SDS011;65160;50.504;3.666;2022-12-18T06:18:55;18.70;;;9.73;;
76344;SDS011;65160;50.504;3.666;2022-12-18T06:21:21;23.80;;;10.40;;
76344;SDS011;65160;50.504;3.666;2022-12-18T06:23:47;19.23;;;9.88;;
76344;SDS011;65160;50.504;3.666;2022-12-18T06:26:12;19.95;;;9.20;;
76344;SDS011;65160;50.504;3.666;2022-12-18T06:28:38;18.38;;;8.50;;
76344;SDS011;65160;50.504;3.666;2022-12-18T06:31:03;21.50;;;8.63;;
76344;SDS011;65160;50.504;3.666;2022-12-18T06:33:30;17.05;;;8.98;;
76344;SDS011;65160;50.504;3.666;2022-12-18T06:36:00;20.05;;;9.32;;
76344;SDS011;65160;50.504;3.666;2022-12-18T06:38:31;18.85;;;8.35;;
76344;SDS011;65160;50.504;3.666;2022-12-18T06:40:57;16.63;;;10.27;;
76344;SDS011;65160;50.504;3.666;2022-12-18T06:43:22;18.60;;;9.35;;
76344;SDS011;65160;50.504;3.666;2022-12-18T06:45:48;17.77;;;9.80;;
76344;SDS011;65160;50.504;3.666;2022-12-18T06:48:17;18.37;;;9.30;;
76344;SDS011;65160;50.504;3.666;2022-12-18T06:50:44;21.13;;;8.97;;
76344;SDS011;65160;50.504;3.666;2022-12-18T06:53:10;17.65;;;8.23;;
76344;SDS011;65160;50.504;3.666;2022-12-18T06:55:35;17.60;;;10.32;;
76344;SDS011;65160;50.504;3.666;2022-12-18T06:58:01;16.33;;;9.13;;
76344;SDS011;65160;50.504;3.666;2022-12-18T07:00:26;15.85;;;8.32;;
76344;SDS011;65160;50.504;3.666;2022-12-18T07:02:52;18.67;;;9.27;;
76344;SDS011;65160;50.504;3.666;2022-12-18T07:05:17;15.27;;;9.15;;
76344;SDS011;65160;50.504;3.666;2022-12-18T07:07:42;16.27;;;8.70;;
76344;SDS011;65160;50.504;3.666;2022-12-18T07:10:08;16.58;;;8.93;;
76344;SDS011;65160;50.504;3.666;2022-12-18T07:12:34;14.15;;;7.30;;
76344;SDS011;65160;50.504;3.666;2022-12-18T07:14:59;17.47;;;7.70;;
76344;SDS011;65160;50.504;3.666;2022-12-18T07:17:25;13.68;;;8.15;;
76344;SDS011;65160;50.504;3.666;2022-12-18T07:19:50;18.13;;;7.95;;
76344;SDS011;65160;50.504;3.666;2022-12-18T07:22:15;13.77;;;7.32;;
76344;SDS011;65160;50.504;3.666;2022-12-18T07:24:41;14.88;;;7.55;;
76344;SDS011;65160;50.504;3.666;2022-12-18T07:27:06;13.95;;;7.70;;
76344;SDS011;65160;50.504;3.666;2022-12-18T07:29:32;14.45;;;7.50;;
76344;SDS011;65160;50.504;3.666;2022-12-18T07:31:57;16.95;;;8.15;;
76344;SDS011;65160;50.504;3.666;2022-12-18T07:34:22;16.98;;;9.02;;
76344;SDS011;65160;50.504;3.666;2022-12-18T07:36:48;17.58;;;9.00;;
76344;SDS011;65160;50.504;3.666;2022-12-18T07:39:13;15.50;;;9.23;;
76344;SDS011;65160;50.504;3.666;2022-12-18T07:41:39;19.98;;;9.45;;
76344;SDS011;65160;50.504;3.666;2022-12-18T07:44:11;20.50;;;8.40;;
76344;SDS011;65160;50.504;3.666;2022-12-18T07:46:37;15.73;;;8.40;;
76344;SDS011;65160;50.504;3.666;2022-12-18T07:49:02;19.17;;;10.15;;
76344;SDS011;65160;50.504;3.666;2022-12-18T07:51:28;15.63;;;8.05;;
76344;SDS011;65160;50.504;3.666;2022-12-18T07:53:54;21.58;;;9.73;;
76344;SDS011;65160;50.504;3.666;2022-12-18T07:56:19;16.45;;;9.65;;
76344;SDS011;65160;50.504;3.666;2022-12-18T07:58:46;20.80;;;10.00;;
76344;SDS011;65160;50.504;3.666;2022-12-18T08:01:12;17.70;;;9.25;;
76344;SDS011;65160;50.504;3.666;2022-12-18T08:03:38;17.15;;;9.20;;
76344;SDS011;65160;50.504;3.666;2022-12-18T08:06:05;18.95;;;9.35;;
76344;SDS011;65160;50.504;3.666;2022-12-18T08:08:33;19.00;;;9.82;;
76344;SDS011;65160;50.504;3.666;2022-12-18T08:10:59;23.90;;;12.15;;
76344;SDS011;65160;50.504;3.666;2022-12-18T08:13:25;18.92;;;10.00;;
76344;SDS011;65160;50.504;3.666;2022-12-18T08:16:06;19.83;;;9.18;;
76344;SDS011;65160;50.504;3.666;2022-12-18T08:21:06;17.42;;;8.85;;
76344;SDS011;65160;50.504;3.666;2022-12-18T08:23:33;19.65;;;11.00;;
76344;SDS011;65160;50.504;3.666;2022-12-18T08:25:58;17.50;;;9.07;;
76344;SDS011;65160;50.504;3.666;2022-12-18T08:28:24;18.40;;;10.15;;
76344;SDS011;65160;50.504;3.666;2022-12-18T08:30:51;20.77;;;10.02;;
76344;SDS011;65160;50.504;3.666;2022-12-18T08:33:17;19.55;;;10.13;;
76344;SDS011;65160;50.504;3.666;2022-12-18T08:35:42;18.65;;;10.07;;
76344;SDS011;65160;50.504;3.666;2022-12-18T08:38:07;21.13;;;10.18;;
76344;SDS011;65160;50.504;3.666;2022-12-18T08:40:33;19.63;;;10.65;;
76344;SDS011;65160;50.504;3.666;2022-12-18T08:42:58;20.17;;;10.60;;
76344;SDS011;65160;50.504;3.666;2022-12-18T08:45:42;20.55;;;11.43;;
76344;SDS011;65160;50.504;3.666;2022-12-18T08:48:08;19.92;;;11.00;;
76344;SDS011;65160;50.504;3.666;2022-12-18T08:50:33;18.48;;;11.68;;
76344;SDS011;65160;50.504;3.666;2022-12-18T08:52:59;16.85;;;10.95;;
76344;SDS011;65160;50.504;3.666;2022-12-18T08:55:25;20.40;;;11.20;;
76344;SDS011;65160;50.504;3.666;2022-12-18T08:57:50;21.17;;;11.45;;
76344;SDS011;65160;50.504;3.666;2022-12-18T09:00:16;19.40;;;10.07;;
76344;SDS011;65160;50.504;3.666;2022-12-18T09:02:41;20.10;;;10.68;;
76344;SDS011;65160;50.504;3.666;2022-12-18T09:05:07;21.70;;;11.77;;
76344;SDS011;65160;50.504;3.666;2022-12-18T09:07:32;19.90;;;11.80;;
76344;SDS011;65160;50.504;3.666;2022-12-18T09:10:01;22.50;;;11.55;;
76344;SDS011;65160;50.504;3.666;2022-12-18T09:12:26;19.60;;;11.98;;
76344;SDS011;65160;50.504;3.666;2022-12-18T09:14:52;19.02;;;11.70;;
76344;SDS011;65160;50.504;3.666;2022-12-18T09:17:17;23.02;;;11.32;;
76344;SDS011;65160;50.504;3.666;2022-12-18T09:19:42;21.40;;;10.90;;
76344;SDS011;65160;50.504;3.666;2022-12-18T09:22:08;17.40;;;11.27;;
76344;SDS011;65160;50.504;3.666;2022-12-18T09:24:34;24.27;;;11.07;;
76344;SDS011;65160;50.504;3.666;2022-12-18T09:27:00;19.65;;;11.25;;
76344;SDS011;65160;50.504;3.666;2022-12-18T09:29:25;24.00;;;14.18;;
76344;SDS011;65160;50.504;3.666;2022-12-18T09:31:51;21.20;;;10.85;;
76344;SDS011;65160;50.504;3.666;2022-12-18T09:34:16;20.67;;;11.90;;
76344;SDS011;65160;50.504;3.666;2022-12-18T09:36:42;21.50;;;12.32;;
76344;SDS011;65160;50.504;3.666;2022-12-18T09:39:07;18.73;;;11.40;;
76344;SDS011;65160;50.504;3.666;2022-12-18T09:41:39;23.15;;;12.27;;
76344;SDS011;65160;50.504;3.666;2022-12-18T09:49:44;22.35;;;12.10;;
76344;SDS011;65160;50.504;3.666;2022-12-18T09:52:14;24.23;;;12.45;;
76344;SDS011;65160;50.504;3.666;2022-12-18T09:54:46;24.67;;;13.02;;
76344;SDS011;65160;50.504;3.666;2022-12-18T09:57:42;23.38;;;12.88;;
76344;SDS011;65160;50.504;3.666;2022-12-18T10:02:48;26.85;;;14.85;;
76344;SDS011;65160;50.504;3.666;2022-12-18T10:05:17;21.08;;;12.48;;
76344;SDS011;65160;50.504;3.666;2022-12-18T10:10:26;21.38;;;11.32;;
76344;SDS011;65160;50.504;3.666;2022-12-18T10:21:43;26.33;;;14.90;;
76344;SDS011;65160;50.504;3.666;2022-12-18T10:27:16;31.88;;;15.20;;
76344;SDS011;65160;50.504;3.666;2022-12-18T10:29:43;29.35;;;14.95;;
76344;SDS011;65160;50.504;3.666;2022-12-18T10:32:17;32.88;;;14.55;;
76344;SDS011;65160;50.504;3.666;2022-12-18T10:34:45;31.88;;;16.15;;
76344;SDS011;65160;50.504;3.666;2022-12-18T10:37:15;27.50;;;15.50;;
76344;SDS011;65160;50.504;3.666;2022-12-18T10:42:37;27.30;;;15.52;;
76344;SDS011;65160;50.504;3.666;2022-12-18T10:45:07;31.08;;;15.85;;
76344;SDS011;65160;50.504;3.666;2022-12-18T10:47:35;30.27;;;13.43;;
76344;SDS011;65160;50.504;3.666;2022-12-18T10:50:11;31.40;;;16.40;;
76344;SDS011;65160;50.504;3.666;2022-12-18T10:52:44;28.40;;;15.25;;
76344;SDS011;65160;50.504;3.666;2022-12-18T10:55:19;26.40;;;15.45;;
76344;SDS011;65160;50.504;3.666;2022-12-18T10:57:45;39.75;;;17.15;;
76344;SDS011;65160;50.504;3.666;2022-12-18T11:00:23;28.48;;;15.43;;
76344;SDS011;65160;50.504;3.666;2022-12-18T11:02:54;34.05;;;17.45;;
76344;SDS011;65160;50.504;3.666;2022-12-18T11:05:30;32.80;;;16.55;;
76344;SDS011;65160;50.504;3.666;2022-12-18T11:07:58;31.38;;;15.73;;
76344;SDS011;65160;50.504;3.666;2022-12-18T11:10:35;31.85;;;15.75;;
76344;SDS011;65160;50.504;3.666;2022-12-18T11:13:21;25.67;;;14.75;;
76344;SDS011;65160;50.504;3.666;2022-12-18T11:15:49;30.67;;;16.88;;
76344;SDS011;65160;50.504;3.666;2022-12-18T11:18:26;30.33;;;16.85;;
76344;SDS011;65160;50.504;3.666;2022-12-18T11:20:56;29.95;;;15.38;;
76344;SDS011;65160;50.504;3.666;2022-12-18T11:23:30;28.40;;;14.85;;
76344;SDS011;65160;50.504;3.666;2022-12-18T11:25:57;37.33;;;17.27;;
76344;SDS011;65160;50.504;3.666;2022-12-18T11:28:28;28.08;;;15.43;;
76344;SDS011;65160;50.504;3.666;2022-12-18T11:31:20;26.08;;;13.93;;
76344;SDS011;65160;50.504;3.666;2022-12-18T11:36:25;27.75;;;15.60;;
76344;SDS011;65160;50.504;3.666;2022-12-18T11:38:57;28.42;;;15.70;;
76344;SDS011;65160;50.504;3.666;2022-12-18T11:41:32;28.77;;;15.73;;
76344;SDS011;65160;50.504;3.666;2022-12-18T11:44:32;32.90;;;16.02;;
76344;SDS011;65160;50.504;3.666;2022-12-18T11:49:55;30.65;;;14.85;;
76344;SDS011;65160;50.504;3.666;2022-12-18T11:52:25;33.47;;;15.07;;
76344;SDS011;65160;50.504;3.666;2022-12-18T11:54:58;31.08;;;15.63;;
76344;SDS011;65160;50.504;3.666;2022-12-18T12:02:47;30.92;;;16.35;;
76344;SDS011;65160;50.504;3.666;2022-12-18T12:08:13;31.25;;;14.90;;
76344;SDS011;65160;50.504;3.666;2022-12-18T12:17:20;32.33;;;16.02;;
76344;SDS011;65160;50.504;3.666;2022-12-18T12:25:33;32.58;;;15.27;;
76344;SDS011;65160;50.504;3.666;2022-12-18T12:28:31;32.78;;;15.52;;
76344;SDS011;65160;50.504;3.666;2022-12-18T12:39:16;28.80;;;13.05;;
76344;SDS011;65160;50.504;3.666;2022-12-18T12:44:40;28.70;;;13.18;;
76344;SDS011;65160;50.504;3.666;2022-12-18T12:47:14;26.58;;;13.32;;
76344;SDS011;65160;50.504;3.666;2022-12-18T12:49:46;34.95;;;14.43;;
76344;SDS011;65160;50.504;3.666;2022-12-18T12:52:46;31.02;;;15.15;;
76344;SDS011;65160;50.504;3.666;2022-12-18T12:55:30;31.05;;;14.10;;
76344;SDS011;65160;50.504;3.666;2022-12-18T13:00:30;29.77;;;14.65;;
76344;SDS011;65160;50.504;3.666;2022-12-18T13:05:57;28.73;;;13.82;;
76344;SDS011;65160;50.504;3.666;2022-12-18T13:08:26;32.63;;;15.57;;
76344;SDS011;65160;50.504;3.666;2022-12-18T13:10:56;29.52;;;16.17;;
76344;SDS011;65160;50.504;3.666;2022-12-18T13:13:51;27.98;;;13.70;;
76344;SDS011;65160;50.504;3.666;2022-12-18T13:16:21;29.83;;;15.02;;
76344;SDS011;65160;50.504;3.666;2022-12-18T13:18:51;28.13;;;14.32;;
76344;SDS011;65160;50.504;3.666;2022-12-18T13:23:54;33.08;;;14.15;;
76344;SDS011;65160;50.504;3.666;2022-12-18T13:26:28;26.60;;;13.25;;
76344;SDS011;65160;50.504;3.666;2022-12-18T13:28:56;24.92;;;13.57;;
76344;SDS011;65160;50.504;3.666;2022-12-18T13:33:48;29.05;;;14.43;;
76344;SDS011;65160;50.504;3.666;2022-12-18T13:36:26;29.70;;;14.80;;
76344;SDS011;65160;50.504;3.666;2022-12-18T13:41:40;27.77;;;14.50;;
76344;SDS011;65160;50.504;3.666;2022-12-18T13:44:11;27.00;;;13.18;;
76344;SDS011;65160;50.504;3.666;2022-12-18T13:46:42;28.02;;;13.38;;
76344;SDS011;65160;50.504;3.666;2022-12-18T13:51:39;33.00;;;16.17;;
76344;SDS011;65160;50.504;3.666;2022-12-18T13:57:02;31.38;;;14.57;;
76344;SDS011;65160;50.504;3.666;2022-12-18T14:02:15;30.05;;;13.55;;
76344;SDS011;65160;50.504;3.666;2022-12-18T14:04:44;26.90;;;14.32;;
76344;SDS011;65160;50.504;3.666;2022-12-18T14:07:12;29.17;;;13.65;;
76344;SDS011;65160;50.504;3.666;2022-12-18T14:09:44;27.45;;;13.80;;
76344;SDS011;65160;50.504;3.666;2022-12-18T14:12:20;30.83;;;14.52;;
76344;SDS011;65160;50.504;3.666;2022-12-18T14:15:25;34.08;;;14.82;;
76344;SDS011;65160;50.504;3.666;2022-12-18T14:17:57;30.80;;;15.10;;
76344;SDS011;65160;50.504;3.666;2022-12-18T14:20:28;33.00;;;16.10;;
76344;SDS011;65160;50.504;3.666;2022-12-18T14:22:56;29.95;;;14.30;;
76344;SDS011;65160;50.504;3.666;2022-12-18T14:25:23;30.88;;;16.98;;
76344;SDS011;65160;50.504;3.666;2022-12-18T14:27:51;33.30;;;15.13;;
76344;SDS011;65160;50.504;3.666;2022-12-18T14:35:29;36.70;;;18.05;;
76344;SDS011;65160;50.504;3.666;2022-12-18T14:38:30;30.48;;;14.18;;
76344;SDS011;65160;50.504;3.666;2022-12-18T14:40:59;26.58;;;14.50;;
76344;SDS011;65160;50.504;3.666;2022-12-18T14:43:35;28.35;;;14.07;;
76344;SDS011;65160;50.504;3.666;2022-12-18T14:46:02;33.08;;;14.85;;
76344;SDS011;65160;50.504;3.666;2022-12-18T14:51:03;27.98;;;13.43;;
76344;SDS011;65160;50.504;3.666;2022-12-18T14:53:39;28.73;;;13.82;;
76344;SDS011;65160;50.504;3.666;2022-12-18T14:56:14;28.80;;;12.55;;
76344;SDS011;65160;50.504;3.666;2022-12-18T14:58:49;29.35;;;13.50;;
76344;SDS011;65160;50.504;3.666;2022-12-18T15:01:45;31.35;;;13.88;;
76344;SDS011;65160;50.504;3.666;2022-12-18T15:04:27;29.02;;;12.85;;
76344;SDS011;65160;50.504;3.666;2022-12-18T15:09:36;33.63;;;14.40;;
76344;SDS011;65160;50.504;3.666;2022-12-18T15:12:02;32.22;;;15.38;;
76344;SDS011;65160;50.504;3.666;2022-12-18T15:14:32;27.55;;;14.20;;
76344;SDS011;65160;50.504;3.666;2022-12-18T15:17:03;40.15;;;17.73;;
76344;SDS011;65160;50.504;3.666;2022-12-18T15:19:38;29.02;;;14.52;;
76344;SDS011;65160;50.504;3.666;2022-12-18T15:22:14;27.77;;;13.82;;
76344;SDS011;65160;50.504;3.666;2022-12-18T15:24:44;30.10;;;14.43;;
76344;SDS011;65160;50.504;3.666;2022-12-18T15:32:33;28.40;;;13.70;;
76344;SDS011;65160;50.504;3.666;2022-12-18T15:35:41;27.83;;;14.15;;
76344;SDS011;65160;50.504;3.666;2022-12-18T15:37:52;26.92;;;13.05;;
76344;SDS011;65160;50.504;3.666;2022-12-18T15:40:22;24.13;;;11.57;;
76344;SDS011;65160;50.504;3.666;2022-12-18T15:42:49;28.02;;;13.82;;
76344;SDS011;65160;50.504;3.666;2022-12-18T15:45:36;27.65;;;13.02;;
76344;SDS011;65160;50.504;3.666;2022-12-18T15:48:02;29.20;;;13.90;;
76344;SDS011;65160;50.504;3.666;2022-12-18T15:50:29;29.88;;;13.50;;
76344;SDS011;65160;50.504;3.666;2022-12-18T15:52:55;28.05;;;12.13;;
76344;SDS011;65160;50.504;3.666;2022-12-18T15:55:22;25.45;;;11.20;;
76344;SDS011;65160;50.504;3.666;2022-12-18T15:58:07;21.92;;;12.23;;
76344;SDS011;65160;50.504;3.666;2022-12-18T16:00:34;27.55;;;11.43;;
76344;SDS011;65160;50.504;3.666;2022-12-18T16:03:00;29.58;;;12.98;;
76344;SDS011;65160;50.504;3.666;2022-12-18T16:05:26;32.85;;;15.07;;
76344;SDS011;65160;50.504;3.666;2022-12-18T16:07:53;29.00;;;14.15;;
76344;SDS011;65160;50.504;3.666;2022-12-18T16:10:18;35.58;;;16.75;;
76344;SDS011;65160;50.504;3.666;2022-12-18T16:12:44;38.00;;;19.20;;
76344;SDS011;65160;50.504;3.666;2022-12-18T16:15:11;34.25;;;15.70;;
76344;SDS011;65160;50.504;3.666;2022-12-18T16:17:39;32.63;;;16.23;;
76344;SDS011;65160;50.504;3.666;2022-12-18T16:20:05;30.30;;;14.63;;
76344;SDS011;65160;50.504;3.666;2022-12-18T16:22:36;34.13;;;16.83;;
76344;SDS011;65160;50.504;3.666;2022-12-18T16:25:02;33.28;;;15.27;;
76344;SDS011;65160;50.504;3.666;2022-12-18T16:27:30;33.42;;;16.13;;
76344;SDS011;65160;50.504;3.666;2022-12-18T16:29:55;38.15;;;17.90;;
76344;SDS011;65160;50.504;3.666;2022-12-18T16:32:22;32.08;;;15.77;;
76344;SDS011;65160;50.504;3.666;2022-12-18T16:34:47;31.85;;;15.13;;
76344;SDS011;65160;50.504;3.666;2022-12-18T16:37:14;29.55;;;15.60;;
76344;SDS011;65160;50.504;3.666;2022-12-18T16:39:40;33.45;;;15.35;;
76344;SDS011;65160;50.504;3.666;2022-12-18T16:42:09;32.33;;;15.27;;
76344;SDS011;65160;50.504;3.666;2022-12-18T16:44:41;28.10;;;13.63;;
76344;SDS011;65160;50.504;3.666;2022-12-18T16:47:07;29.42;;;14.65;;
76344;SDS011;65160;50.504;3.666;2022-12-18T16:49:33;35.13;;;16.00;;
76344;SDS011;65160;50.504;3.666;2022-12-18T16:51:58;33.67;;;16.08;;
76344;SDS011;65160;50.504;3.666;2022-12-18T16:54:24;33.88;;;14.65;;
76344;SDS011;65160;50.504;3.666;2022-12-18T16:56:50;35.75;;;17.20;;